Αρχική σελίδα
METAR-TAF:

METAR-TAF

Αεροδρόμια :

Sørvágur, Νήσοι Φερόε, Δανία

γεωγραφικό πλάτος: 62-04N, γεωγραφικό μήκος: 007-17W, υψόμετρο: 85 μ

Παρών καιρός

Η αναφορά έγινε 16 λεπτά πριν, στις 01:50 UTC
Άνεμος 5 kt από Δ/BΔ, μεταβλητός μεταξύ Δ και Β/BA
Θερμοκρασία 11°C
Υγρασία 94%
Πίεση 1013 hPa
Ορατότητα 10 χλμ και άνω

METAR: EKVG 230150Z AUTO 29005KT 260V020 9999 BKN011/// 11/10 Q1013 RMK BKN008/// BKN110/// WIND SKEID 28018KT

Χρόνος: 04:06 (02:06 UTC)

Πρόγνωση Καιρού

Η αναφορά έγινε 11 ώρες και 45 λεπτά πριν, στις 14:21 UTC
Η πρόγνωση ισχύει από τις 22 στις 15 UTC έως τις 22 στις 21 UTC
Άνεμος 12 kt από Ν
Ορατότητα 10 χλμ και άνω
Αρκετά νέφη σε ύψος 1000 πόδια
Προσωρινά
από 22 στις 19 UTC έως τις 22 στις 21 UTC
Ορατότητα: 4000 μ
Νεφοσκεπής σε ύψος 500 πόδια
Ασθενής Ψιλόβροχο, Αχλής,

TAF: EKVG 221421Z 2215/2221 19012KT 9999 BKN010 TEMPO 2219/2221 4000 -DZ BR OVC005

Μετεωρολογικές αναφορές και προγνώσεις για περισσότερα από 4000 αεροδρόμια (δελτία METAR και TAF).

Οι διαθέσιμοι σταθμοί απεικονίζονται στο χάρτη με κίτρινες και κόκκινες κουκκίδες.

Μετακινήστε το ποντίκι πάνω από τις κουκκίδες για να δείτε το όνομα του σταθμού.

Στη συνέχεια, κάντε κλικ για να δείτε τις μετεωρολογικές αναφορές και τις προγνώσεις καιρού.

Για να αλλάξετε το χάρτη: κάντε κλικ στα πράσινα κουμπιά με τον μαύρο σταυρό για να ζουμάρετε, στο πράσινο κουμπί με την παύλα για να αφαιρέσετε το ζουμ ή στα πράσινα βέλη για να αντιπαραβάλλετε χάρτες.


METAR-TAF: